sensor_id;sensor_type;location;lat;lon;timestamp;temperature;humidity
27707;DHT22;36332;51.384;0.040;2023-02-28T00:01:31;4.00;99.90
27707;DHT22;36332;51.384;0.040;2023-02-28T00:03:59;4.00;99.90
27707;DHT22;36332;51.384;0.040;2023-02-28T00:06:28;3.90;99.90
27707;DHT22;36332;51.384;0.040;2023-02-28T00:08:55;3.80;99.90
27707;DHT22;36332;51.384;0.040;2023-02-28T00:11:23;3.80;99.90
27707;DHT22;36332;51.384;0.040;2023-02-28T00:13:51;3.80;99.90
27707;DHT22;36332;51.384;0.040;2023-02-28T00:16:21;3.70;99.90
27707;DHT22;36332;51.384;0.040;2023-02-28T00:18:50;3.70;99.90
27707;DHT22;36332;51.384;0.040;2023-02-28T00:21:19;3.60;99.90
27707;DHT22;36332;51.384;0.040;2023-02-28T00:23:47;3.60;99.90
27707;DHT22;36332;51.384;0.040;2023-02-28T00:26:14;3.60;99.90
27707;DHT22;36332;51.384;0.040;2023-02-28T00:28:45;3.60;99.90
27707;DHT22;36332;51.384;0.040;2023-02-28T00:31:13;3.50;99.90
27707;DHT22;36332;51.384;0.040;2023-02-28T00:33:40;3.50;99.90
27707;DHT22;36332;51.384;0.040;2023-02-28T00:36:11;3.40;99.90
27707;DHT22;36332;51.384;0.040;2023-02-28T00:38:39;3.40;99.90
27707;DHT22;36332;51.384;0.040;2023-02-28T00:41:08;3.30;99.90
27707;DHT22;36332;51.384;0.040;2023-02-28T00:43:37;3.30;99.90
27707;DHT22;36332;51.384;0.040;2023-02-28T00:46:05;3.30;99.90
27707;DHT22;36332;51.384;0.040;2023-02-28T00:48:36;3.20;99.90
27707;DHT22;36332;51.384;0.040;2023-02-28T00:51:04;4.70;99.90
27707;DHT22;36332;51.384;0.040;2023-02-28T00:53:31;3.10;99.90
27707;DHT22;36332;51.384;0.040;2023-02-28T00:56:00;3.00;99.90
27707;DHT22;36332;51.384;0.040;2023-02-28T00:58:28;3.00;99.90
27707;DHT22;36332;51.384;0.040;2023-02-28T01:00:57;3.00;99.90
27707;DHT22;36332;51.384;0.040;2023-02-28T01:03:24;2.90;99.90
27707;DHT22;36332;51.384;0.040;2023-02-28T01:05:52;2.90;99.90
27707;DHT22;36332;51.384;0.040;2023-02-28T01:08:23;2.80;99.90
27707;DHT22;36332;51.384;0.040;2023-02-28T01:10:50;2.80;99.90
27707;DHT22;36332;51.384;0.040;2023-02-28T01:13:19;2.80;99.90
27707;DHT22;36332;51.384;0.040;2023-02-28T01:15:50;2.70;99.90
27707;DHT22;36332;51.384;0.040;2023-02-28T01:18:20;2.70;99.90
27707;DHT22;36332;51.384;0.040;2023-02-28T01:20:48;2.70;99.90
27707;DHT22;36332;51.384;0.040;2023-02-28T01:23:16;2.70;99.90
27707;DHT22;36332;51.384;0.040;2023-02-28T01:25:44;2.60;99.90
27707;DHT22;36332;51.384;0.040;2023-02-28T01:28:12;2.60;99.90
27707;DHT22;36332;51.384;0.040;2023-02-28T01:30:40;2.60;99.90
27707;DHT22;36332;51.384;0.040;2023-02-28T01:33:07;2.70;99.90
27707;DHT22;36332;51.384;0.040;2023-02-28T01:35:36;2.70;99.90
27707;DHT22;36332;51.384;0.040;2023-02-28T01:38:04;2.80;99.90
27707;DHT22;36332;51.384;0.040;2023-02-28T01:40:48;2.90;99.90
27707;DHT22;36332;51.384;0.040;2023-02-28T01:46:10;3.00;99.90
27707;DHT22;36332;51.384;0.040;2023-02-28T01:48:48;3.00;99.90
27707;DHT22;36332;51.384;0.040;2023-02-28T01:51:48;3.10;99.90
27707;DHT22;36332;51.384;0.040;2023-02-28T01:54:28;3.10;99.90
27707;DHT22;36332;51.384;0.040;2023-02-28T01:57:09;3.20;99.90
27707;DHT22;36332;51.384;0.040;2023-02-28T01:59:47;3.10;99.90
27707;DHT22;36332;51.384;0.040;2023-02-28T02:02:20;3.10;99.90
27707;DHT22;36332;51.384;0.040;2023-02-28T02:04:58;3.10;99.90
27707;DHT22;36332;51.384;0.040;2023-02-28T02:07:37;3.10;99.90
27707;DHT22;36332;51.384;0.040;2023-02-28T02:10:41;3.00;99.90
27707;DHT22;36332;51.384;0.040;2023-02-28T02:13:20;3.00;99.90
27707;DHT22;36332;51.384;0.040;2023-02-28T02:21:46;3.00;99.90
27707;DHT22;36332;51.384;0.040;2023-02-28T02:27:22;3.00;99.90
27707;DHT22;36332;51.384;0.040;2023-02-28T02:35:54;3.00;99.90
27707;DHT22;36332;51.384;0.040;2023-02-28T02:38:46;2.90;99.90
27707;DHT22;36332;51.384;0.040;2023-02-28T02:43:58;2.90;99.90
27707;DHT22;36332;51.384;0.040;2023-02-28T02:46:31;2.80;99.90
27707;DHT22;36332;51.384;0.040;2023-02-28T02:49:03;2.70;99.90
27707;DHT22;36332;51.384;0.040;2023-02-28T02:51:35;2.70;99.90
27707;DHT22;36332;51.384;0.040;2023-02-28T02:54:14;2.60;99.90
27707;DHT22;36332;51.384;0.040;2023-02-28T02:56:46;2.60;99.90
27707;DHT22;36332;51.384;0.040;2023-02-28T02:59:18;2.50;99.90
27707;DHT22;36332;51.384;0.040;2023-02-28T03:01:55;2.40;99.90
27707;DHT22;36332;51.384;0.040;2023-02-28T03:04:26;2.40;99.90
27707;DHT22;36332;51.384;0.040;2023-02-28T03:06:56;2.30;99.90
27707;DHT22;36332;51.384;0.040;2023-02-28T03:09:24;2.30;99.90
27707;DHT22;36332;51.384;0.040;2023-02-28T03:11:55;2.20;99.90
27707;DHT22;36332;51.384;0.040;2023-02-28T03:14:45;2.20;99.90
27707;DHT22;36332;51.384;0.040;2023-02-28T03:20:15;2.10;99.90
27707;DHT22;36332;51.384;0.040;2023-02-28T03:23:06;2.00;99.90
27707;DHT22;36332;51.384;0.040;2023-02-28T03:28:22;2.00;99.90
27707;DHT22;36332;51.384;0.040;2023-02-28T03:36:37;1.80;99.90
27707;DHT22;36332;51.384;0.040;2023-02-28T03:39:28;1.80;99.90
27707;DHT22;36332;51.384;0.040;2023-02-28T03:42:11;1.80;99.90
27707;DHT22;36332;51.384;0.040;2023-02-28T03:44:48;1.90;99.90
27707;DHT22;36332;51.384;0.040;2023-02-28T03:47:29;1.70;99.90
27707;DHT22;36332;51.384;0.040;2023-02-28T03:50:05;1.70;99.90
27707;DHT22;36332;51.384;0.040;2023-02-28T03:52:39;1.60;99.90
27707;DHT22;36332;51.384;0.040;2023-02-28T03:55:11;1.60;99.90
27707;DHT22;36332;51.384;0.040;2023-02-28T03:58:19;1.50;99.90
27707;DHT22;36332;51.384;0.040;2023-02-28T04:00:45;1.50;99.90
27707;DHT22;36332;51.384;0.040;2023-02-28T04:03:13;1.50;99.90
27707;DHT22;36332;51.384;0.040;2023-02-28T04:05:51;1.40;99.90
27707;DHT22;36332;51.384;0.040;2023-02-28T04:08:20;1.40;99.90
27707;DHT22;36332;51.384;0.040;2023-02-28T04:10:56;1.40;99.90
27707;DHT22;36332;51.384;0.040;2023-02-28T04:13:25;1.40;99.90
27707;DHT22;36332;51.384;0.040;2023-02-28T04:15:52;1.40;99.90
27707;DHT22;36332;51.384;0.040;2023-02-28T04:18:20;1.30;99.90
27707;DHT22;36332;51.384;0.040;2023-02-28T04:20:48;1.30;99.90
27707;DHT22;36332;51.384;0.040;2023-02-28T04:23:15;1.30;99.90
27707;DHT22;36332;51.384;0.040;2023-02-28T04:25:43;1.30;99.90
27707;DHT22;36332;51.384;0.040;2023-02-28T04:28:10;1.20;99.90
27707;DHT22;36332;51.384;0.040;2023-02-28T04:30:38;1.20;99.90
27707;DHT22;36332;51.384;0.040;2023-02-28T04:33:06;1.20;99.90
27707;DHT22;36332;51.384;0.040;2023-02-28T04:35:34;1.20;99.90
27707;DHT22;36332;51.384;0.040;2023-02-28T04:38:01;1.20;99.90
27707;DHT22;36332;51.384;0.040;2023-02-28T04:40:29;1.20;99.90
27707;DHT22;36332;51.384;0.040;2023-02-28T04:42:57;1.10;99.90
27707;DHT22;36332;51.384;0.040;2023-02-28T04:45:24;1.10;99.90
27707;DHT22;36332;51.384;0.040;2023-02-28T04:47:52;1.10;99.90
27707;DHT22;36332;51.384;0.040;2023-02-28T04:50:21;1.10;99.90
27707;DHT22;36332;51.384;0.040;2023-02-28T04:52:48;1.10;99.90
27707;DHT22;36332;51.384;0.040;2023-02-28T04:55:16;1.10;99.90
27707;DHT22;36332;51.384;0.040;2023-02-28T04:57:43;2.30;99.90
27707;DHT22;36332;51.384;0.040;2023-02-28T05:00:11;1.00;99.90
27707;DHT22;36332;51.384;0.040;2023-02-28T05:02:42;1.00;99.90
27707;DHT22;36332;51.384;0.040;2023-02-28T05:05:10;1.00;99.90
27707;DHT22;36332;51.384;0.040;2023-02-28T05:07:39;1.00;99.90
27707;DHT22;36332;51.384;0.040;2023-02-28T05:10:07;0.90;99.90
27707;DHT22;36332;51.384;0.040;2023-02-28T05:12:35;0.90;99.90
27707;DHT22;36332;51.384;0.040;2023-02-28T05:15:03;0.90;99.90
27707;DHT22;36332;51.384;0.040;2023-02-28T05:17:32;0.90;99.90
27707;DHT22;36332;51.384;0.040;2023-02-28T05:20:00;0.90;99.90
27707;DHT22;36332;51.384;0.040;2023-02-28T05:22:42;0.90;99.90
27707;DHT22;36332;51.384;0.040;2023-02-28T05:25:18;0.90;99.90
27707;DHT22;36332;51.384;0.040;2023-02-28T05:27:46;0.80;99.90
27707;DHT22;36332;51.384;0.040;2023-02-28T05:30:14;0.80;99.90
27707;DHT22;36332;51.384;0.040;2023-02-28T05:32:42;0.80;99.90
27707;DHT22;36332;51.384;0.040;2023-02-28T05:35:11;0.80;99.90
27707;DHT22;36332;51.384;0.040;2023-02-28T05:37:39;0.80;99.90
27707;DHT22;36332;51.384;0.040;2023-02-28T05:40:08;0.80;99.90
27707;DHT22;36332;51.384;0.040;2023-02-28T05:42:38;0.80;99.90
27707;DHT22;36332;51.384;0.040;2023-02-28T05:45:07;0.80;99.90
27707;DHT22;36332;51.384;0.040;2023-02-28T05:47:35;0.90;99.90
27707;DHT22;36332;51.384;0.040;2023-02-28T05:50:04;0.90;99.90
27707;DHT22;36332;51.384;0.040;2023-02-28T05:52:32;1.00;99.90
27707;DHT22;36332;51.384;0.040;2023-02-28T05:55:00;1.10;99.90
27707;DHT22;36332;51.384;0.040;2023-02-28T05:57:27;1.20;99.90
27707;DHT22;36332;51.384;0.040;2023-02-28T05:59:55;1.20;99.90
27707;DHT22;36332;51.384;0.040;2023-02-28T06:02:22;1.30;99.90
27707;DHT22;36332;51.384;0.040;2023-02-28T06:04:50;1.40;99.90
27707;DHT22;36332;51.384;0.040;2023-02-28T06:07:18;1.40;99.90
27707;DHT22;36332;51.384;0.040;2023-02-28T06:09:45;1.50;99.90
27707;DHT22;36332;51.384;0.040;2023-02-28T06:12:13;1.60;99.90
27707;DHT22;36332;51.384;0.040;2023-02-28T06:14:40;1.70;99.90
27707;DHT22;36332;51.384;0.040;2023-02-28T06:17:08;1.80;99.90
27707;DHT22;36332;51.384;0.040;2023-02-28T06:19:37;1.90;99.90
27707;DHT22;36332;51.384;0.040;2023-02-28T06:22:06;2.00;99.90
27707;DHT22;36332;51.384;0.040;2023-02-28T06:24:34;2.10;99.90
27707;DHT22;36332;51.384;0.040;2023-02-28T06:27:02;2.10;99.90
27707;DHT22;36332;51.384;0.040;2023-02-28T06:29:34;2.20;99.90
27707;DHT22;36332;51.384;0.040;2023-02-28T06:32:02;2.30;99.90
27707;DHT22;36332;51.384;0.040;2023-02-28T06:34:30;2.30;99.90
27707;DHT22;36332;51.384;0.040;2023-02-28T06:36:58;2.40;99.90
27707;DHT22;36332;51.384;0.040;2023-02-28T06:39:30;2.50;99.90
27707;DHT22;36332;51.384;0.040;2023-02-28T06:41:58;2.60;99.90
27707;DHT22;36332;51.384;0.040;2023-02-28T06:44:25;2.60;99.90
27707;DHT22;36332;51.384;0.040;2023-02-28T06:46:53;2.60;99.90
27707;DHT22;36332;51.384;0.040;2023-02-28T06:49:21;4.10;99.90
27707;DHT22;36332;51.384;0.040;2023-02-28T06:51:49;2.70;99.90
27707;DHT22;36332;51.384;0.040;2023-02-28T06:54:17;2.80;99.90
27707;DHT22;36332;51.384;0.040;2023-02-28T06:56:45;2.80;99.90
27707;DHT22;36332;51.384;0.040;2023-02-28T06:59:12;2.80;99.90
27707;DHT22;36332;51.384;0.040;2023-02-28T07:01:40;2.90;99.90
27707;DHT22;36332;51.384;0.040;2023-02-28T07:04:08;2.90;99.90
27707;DHT22;36332;51.384;0.040;2023-02-28T07:06:37;3.00;99.90
27707;DHT22;36332;51.384;0.040;2023-02-28T07:09:05;3.00;99.90
27707;DHT22;36332;51.384;0.040;2023-02-28T07:11:32;3.10;99.90
27707;DHT22;36332;51.384;0.040;2023-02-28T07:14:00;3.10;99.90
27707;DHT22;36332;51.384;0.040;2023-02-28T07:16:27;3.20;99.90
27707;DHT22;36332;51.384;0.040;2023-02-28T07:18:55;3.20;99.90
27707;DHT22;36332;51.384;0.040;2023-02-28T07:21:23;3.20;99.90
27707;DHT22;36332;51.384;0.040;2023-02-28T07:23:51;3.30;99.90
27707;DHT22;36332;51.384;0.040;2023-02-28T07:26:19;3.40;99.90
27707;DHT22;36332;51.384;0.040;2023-02-28T07:28:48;3.30;99.90
27707;DHT22;36332;51.384;0.040;2023-02-28T07:31:16;3.40;99.90
27707;DHT22;36332;51.384;0.040;2023-02-28T07:33:44;3.50;99.90
27707;DHT22;36332;51.384;0.040;2023-02-28T07:36:14;3.50;99.90
27707;DHT22;36332;51.384;0.040;2023-02-28T07:38:43;3.50;99.90
27707;DHT22;36332;51.384;0.040;2023-02-28T07:41:16;3.60;99.90
27707;DHT22;36332;51.384;0.040;2023-02-28T07:43:44;3.60;99.90
27707;DHT22;36332;51.384;0.040;2023-02-28T07:46:14;3.60;99.90
27707;DHT22;36332;51.384;0.040;2023-02-28T07:48:46;3.70;99.90
27707;DHT22;36332;51.384;0.040;2023-02-28T07:51:13;3.80;99.90
27707;DHT22;36332;51.384;0.040;2023-02-28T07:53:41;3.90;99.90
27707;DHT22;36332;51.384;0.040;2023-02-28T07:56:10;4.00;99.90
27707;DHT22;36332;51.384;0.040;2023-02-28T07:58:38;4.00;99.90
27707;DHT22;36332;51.384;0.040;2023-02-28T08:01:07;4.10;99.90
27707;DHT22;36332;51.384;0.040;2023-02-28T08:03:35;4.20;99.90
27707;DHT22;36332;51.384;0.040;2023-02-28T08:06:04;4.20;99.90
27707;DHT22;36332;51.384;0.040;2023-02-28T08:08:32;4.30;99.90
27707;DHT22;36332;51.384;0.040;2023-02-28T08:11:02;4.50;99.90
27707;DHT22;36332;51.384;0.040;2023-02-28T08:13:30;4.50;99.90
27707;DHT22;36332;51.384;0.040;2023-02-28T08:15:58;4.60;99.90
27707;DHT22;36332;51.384;0.040;2023-02-28T08:18:28;4.70;99.90
27707;DHT22;36332;51.384;0.040;2023-02-28T08:20:56;4.80;99.90
27707;DHT22;36332;51.384;0.040;2023-02-28T08:23:24;5.00;99.90
27707;DHT22;36332;51.384;0.040;2023-02-28T08:25:56;5.20;99.90
27707;DHT22;36332;51.384;0.040;2023-02-28T08:28:23;5.30;99.90
27707;DHT22;36332;51.384;0.040;2023-02-28T08:30:54;5.30;99.90
27707;DHT22;36332;51.384;0.040;2023-02-28T08:33:23;5.50;99.90
27707;DHT22;36332;51.384;0.040;2023-02-28T08:35:56;5.50;99.90
27707;DHT22;36332;51.384;0.040;2023-02-28T08:38:24;5.60;99.90
27707;DHT22;36332;51.384;0.040;2023-02-28T08:41:00;5.70;99.90
27707;DHT22;36332;51.384;0.040;2023-02-28T08:43:28;4.70;99.90
27707;DHT22;36332;51.384;0.040;2023-02-28T08:45:55;6.20;99.90
27707;DHT22;36332;51.384;0.040;2023-02-28T08:48:28;6.20;99.90
27707;DHT22;36332;51.384;0.040;2023-02-28T08:53:35;6.00;99.90
27707;DHT22;36332;51.384;0.040;2023-02-28T08:56:05;6.10;99.90
27707;DHT22;36332;51.384;0.040;2023-02-28T08:58:34;6.10;99.90
27707;DHT22;36332;51.384;0.040;2023-02-28T09:01:21;6.30;99.90
27707;DHT22;36332;51.384;0.040;2023-02-28T09:03:50;6.40;99.90
27707;DHT22;36332;51.384;0.040;2023-02-28T09:06:19;6.60;99.90
27707;DHT22;36332;51.384;0.040;2023-02-28T09:08:47;6.70;99.90
27707;DHT22;36332;51.384;0.040;2023-02-28T09:11:16;6.80;99.90
27707;DHT22;36332;51.384;0.040;2023-02-28T09:13:43;7.60;99.90
27707;DHT22;36332;51.384;0.040;2023-02-28T09:16:14;5.70;99.90
27707;DHT22;36332;51.384;0.040;2023-02-28T09:18:42;6.80;99.90
27707;DHT22;36332;51.384;0.040;2023-02-28T09:21:13;6.80;99.90
27707;DHT22;36332;51.384;0.040;2023-02-28T09:23:42;6.80;99.90
27707;DHT22;36332;51.384;0.040;2023-02-28T09:26:15;6.90;99.90
27707;DHT22;36332;51.384;0.040;2023-02-28T09:28:44;6.80;99.90
27707;DHT22;36332;51.384;0.040;2023-02-28T09:31:22;6.90;99.90
27707;DHT22;36332;51.384;0.040;2023-02-28T09:33:52;7.00;99.90
27707;DHT22;36332;51.384;0.040;2023-02-28T09:36:22;7.20;99.90
27707;DHT22;36332;51.384;0.040;2023-02-28T09:39:00;7.30;99.90
27707;DHT22;36332;51.384;0.040;2023-02-28T09:41:32;7.40;99.90
27707;DHT22;36332;51.384;0.040;2023-02-28T09:44:05;7.40;99.90
27707;DHT22;36332;51.384;0.040;2023-02-28T09:46:42;7.40;99.90
27707;DHT22;36332;51.384;0.040;2023-02-28T09:49:20;7.50;99.90
27707;DHT22;36332;51.384;0.040;2023-02-28T09:52:02;7.40;99.90
27707;DHT22;36332;51.384;0.040;2023-02-28T09:54:32;7.40;99.90
27707;DHT22;36332;51.384;0.040;2023-02-28T09:57:13;7.50;99.90
27707;DHT22;36332;51.384;0.040;2023-02-28T10:05:50;7.30;99.90
27707;DHT22;36332;51.384;0.040;2023-02-28T10:08:18;7.20;99.90
27707;DHT22;36332;51.384;0.040;2023-02-28T10:10:51;7.10;99.90
27707;DHT22;36332;51.384;0.040;2023-02-28T10:13:45;7.10;99.90
27707;DHT22;36332;51.384;0.040;2023-02-28T10:22:15;7.00;99.90
27707;DHT22;36332;51.384;0.040;2023-02-28T10:24:46;7.00;99.90
27707;DHT22;36332;51.384;0.040;2023-02-28T10:27:37;7.10;99.90
27707;DHT22;36332;51.384;0.040;2023-02-28T10:30:05;7.10;99.90
27707;DHT22;36332;51.384;0.040;2023-02-28T10:32:34;7.10;99.90
27707;DHT22;36332;51.384;0.040;2023-02-28T10:37:50;7.10;99.90
27707;DHT22;36332;51.384;0.040;2023-02-28T10:43:04;8.80;99.90
27707;DHT22;36332;51.384;0.040;2023-02-28T10:45:33;7.20;99.90
27707;DHT22;36332;51.384;0.040;2023-02-28T10:48:26;7.20;99.90
27707;DHT22;36332;51.384;0.040;2023-02-28T10:50:55;7.40;99.90
27707;DHT22;36332;51.384;0.040;2023-02-28T10:53:31;7.40;99.90
27707;DHT22;36332;51.384;0.040;2023-02-28T10:59:22;7.50;99.90
27707;DHT22;36332;51.384;0.040;2023-02-28T11:01:51;7.50;99.90
27707;DHT22;36332;51.384;0.040;2023-02-28T11:07:20;7.50;99.90
27707;DHT22;36332;51.384;0.040;2023-02-28T11:09:53;7.50;99.90
27707;DHT22;36332;51.384;0.040;2023-02-28T11:12:37;7.40;99.90
27707;DHT22;36332;51.384;0.040;2023-02-28T11:15:24;7.40;99.90
27707;DHT22;36332;51.384;0.040;2023-02-28T11:20:31;7.30;99.90
27707;DHT22;36332;51.384;0.040;2023-02-28T11:23:03;7.30;99.90
27707;DHT22;36332;51.384;0.040;2023-02-28T11:25:37;7.40;99.90
27707;DHT22;36332;51.384;0.040;2023-02-28T11:28:23;7.30;99.90
27707;DHT22;36332;51.384;0.040;2023-02-28T11:31:15;7.40;99.90
27707;DHT22;36332;51.384;0.040;2023-02-28T11:33:45;7.40;99.90
27707;DHT22;36332;51.384;0.040;2023-02-28T11:36:16;7.40;99.90
27707;DHT22;36332;51.384;0.040;2023-02-28T11:38:48;7.40;99.90
27707;DHT22;36332;51.384;0.040;2023-02-28T11:55:20;7.10;99.90
27707;DHT22;36332;51.384;0.040;2023-02-28T12:03:15;7.40;99.90
27707;DHT22;36332;51.384;0.040;2023-02-28T12:05:53;7.20;99.90
27707;DHT22;36332;51.384;0.040;2023-02-28T12:08:44;7.10;99.90
27707;DHT22;36332;51.384;0.040;2023-02-28T12:11:32;7.20;99.90
27707;DHT22;36332;51.384;0.040;2023-02-28T12:19:49;7.30;99.90
27707;DHT22;36332;51.384;0.040;2023-02-28T12:22:37;7.40;99.90
27707;DHT22;36332;51.384;0.040;2023-02-28T12:27:38;7.90;99.90
27707;DHT22;36332;51.384;0.040;2023-02-28T12:33:00;7.50;99.90
27707;DHT22;36332;51.384;0.040;2023-02-28T12:35:35;7.50;99.90
27707;DHT22;36332;51.384;0.040;2023-02-28T12:38:19;7.60;99.90
27707;DHT22;36332;51.384;0.040;2023-02-28T12:44:00;7.50;99.90
27707;DHT22;36332;51.384;0.040;2023-02-28T12:46:30;7.50;99.90
27707;DHT22;36332;51.384;0.040;2023-02-28T12:49:06;7.60;99.90
27707;DHT22;36332;51.384;0.040;2023-02-28T12:51:35;7.60;99.90
27707;DHT22;36332;51.384;0.040;2023-02-28T12:56:56;7.60;99.90
27707;DHT22;36332;51.384;0.040;2023-02-28T12:59:27;7.50;99.90
27707;DHT22;36332;51.384;0.040;2023-02-28T13:10:23;7.50;99.90
27707;DHT22;36332;51.384;0.040;2023-02-28T13:12:53;7.50;99.90
27707;DHT22;36332;51.384;0.040;2023-02-28T13:15:28;7.60;99.90
27707;DHT22;36332;51.384;0.040;2023-02-28T13:17:58;7.60;99.90
27707;DHT22;36332;51.384;0.040;2023-02-28T13:20:35;7.50;99.90
27707;DHT22;36332;51.384;0.040;2023-02-28T13:23:03;7.60;99.90
27707;DHT22;36332;51.384;0.040;2023-02-28T13:28:11;7.60;99.90
27707;DHT22;36332;51.384;0.040;2023-02-28T13:33:30;7.70;99.90
27707;DHT22;36332;51.384;0.040;2023-02-28T13:36:10;7.70;99.90
27707;DHT22;36332;51.384;0.040;2023-02-28T13:38:45;7.70;99.90
27707;DHT22;36332;51.384;0.040;2023-02-28T13:44:16;7.70;99.90
27707;DHT22;36332;51.384;0.040;2023-02-28T14:04:06;7.80;99.90
27707;DHT22;36332;51.384;0.040;2023-02-28T14:06:38;7.80;99.90
27707;DHT22;36332;51.384;0.040;2023-02-28T14:09:18;7.80;99.90
27707;DHT22;36332;51.384;0.040;2023-02-28T14:11:49;7.80;99.90
27707;DHT22;36332;51.384;0.040;2023-02-28T14:17:04;7.80;99.90
27707;DHT22;36332;51.384;0.040;2023-02-28T14:19:37;7.80;99.90
27707;DHT22;36332;51.384;0.040;2023-02-28T14:25:16;7.70;99.90
27707;DHT22;36332;51.384;0.040;2023-02-28T14:33:26;7.70;99.90
27707;DHT22;36332;51.384;0.040;2023-02-28T14:36:17;7.70;99.90
27707;DHT22;36332;51.384;0.040;2023-02-28T14:38:50;7.80;99.90
27707;DHT22;36332;51.384;0.040;2023-02-28T14:41:41;7.80;99.90
27707;DHT22;36332;51.384;0.040;2023-02-28T14:44:22;7.80;99.90
27707;DHT22;36332;51.384;0.040;2023-02-28T14:47:14;7.80;99.90
27707;DHT22;36332;51.384;0.040;2023-02-28T14:49:44;7.80;99.90
27707;DHT22;36332;51.384;0.040;2023-02-28T14:52:29;7.80;99.90
27707;DHT22;36332;51.384;0.040;2023-02-28T14:55:10;7.80;99.90
27707;DHT22;36332;51.384;0.040;2023-02-28T14:57:41;7.80;99.90
27707;DHT22;36332;51.384;0.040;2023-02-28T15:00:28;7.80;99.90
27707;DHT22;36332;51.384;0.040;2023-02-28T15:02:58;7.80;99.90
27707;DHT22;36332;51.384;0.040;2023-02-28T15:05:31;7.90;99.90
27707;DHT22;36332;51.384;0.040;2023-02-28T15:08:12;7.90;99.90
27707;DHT22;36332;51.384;0.040;2023-02-28T15:10:44;7.90;99.90
27707;DHT22;36332;51.384;0.040;2023-02-28T15:13:14;8.00;99.90
27707;DHT22;36332;51.384;0.040;2023-02-28T15:16:22;8.10;99.90
27707;DHT22;36332;51.384;0.040;2023-02-28T15:18:52;8.10;99.90
27707;DHT22;36332;51.384;0.040;2023-02-28T15:21:27;8.20;99.90
27707;DHT22;36332;51.384;0.040;2023-02-28T15:24:06;8.10;99.90
27707;DHT22;36332;51.384;0.040;2023-02-28T15:26:39;8.10;99.90
27707;DHT22;36332;51.384;0.040;2023-02-28T15:29:12;8.20;99.90
27707;DHT22;36332;51.384;0.040;2023-02-28T15:31:44;8.20;99.90
27707;DHT22;36332;51.384;0.040;2023-02-28T15:34:42;8.20;99.90
27707;DHT22;36332;51.384;0.040;2023-02-28T15:37:40;8.10;99.90
27707;DHT22;36332;51.384;0.040;2023-02-28T15:40:30;8.10;99.90
27707;DHT22;36332;51.384;0.040;2023-02-28T15:43:12;8.40;99.90
27707;DHT22;36332;51.384;0.040;2023-02-28T15:45:43;8.20;99.90
27707;DHT22;36332;51.384;0.040;2023-02-28T15:48:22;8.20;99.90
27707;DHT22;36332;51.384;0.040;2023-02-28T15:51:17;8.20;99.90
27707;DHT22;36332;51.384;0.040;2023-02-28T15:53:56;8.20;99.90
27707;DHT22;36332;51.384;0.040;2023-02-28T15:56:26;8.20;99.90
27707;DHT22;36332;51.384;0.040;2023-02-28T15:58:56;8.20;99.90
27707;DHT22;36332;51.384;0.040;2023-02-28T16:01:28;8.20;99.90
27707;DHT22;36332;51.384;0.040;2023-02-28T16:04:02;8.20;99.90
27707;DHT22;36332;51.384;0.040;2023-02-28T16:07:11;8.10;99.90
27707;DHT22;36332;51.384;0.040;2023-02-28T16:09:35;8.10;99.90
27707;DHT22;36332;51.384;0.040;2023-02-28T16:12:05;8.00;99.90
27707;DHT22;36332;51.384;0.040;2023-02-28T16:14:32;8.10;99.90
27707;DHT22;36332;51.384;0.040;2023-02-28T16:17:08;8.10;99.90
27707;DHT22;36332;51.384;0.040;2023-02-28T16:19:40;8.00;99.90
27707;DHT22;36332;51.384;0.040;2023-02-28T16:22:09;8.00;99.90
27707;DHT22;36332;51.384;0.040;2023-02-28T16:24:37;8.00;99.90
27707;DHT22;36332;51.384;0.040;2023-02-28T16:27:06;8.00;99.90
27707;DHT22;36332;51.384;0.040;2023-02-28T16:29:35;8.00;99.90
27707;DHT22;36332;51.384;0.040;2023-02-28T16:32:05;8.00;99.90
27707;DHT22;36332;51.384;0.040;2023-02-28T16:34:33;8.00;99.90
27707;DHT22;36332;51.384;0.040;2023-02-28T16:37:01;7.90;99.90
27707;DHT22;36332;51.384;0.040;2023-02-28T16:39:29;7.90;99.90
27707;DHT22;36332;51.384;0.040;2023-02-28T16:41:57;8.00;99.90
27707;DHT22;36332;51.384;0.040;2023-02-28T16:44:29;7.90;99.90
27707;DHT22;36332;51.384;0.040;2023-02-28T16:47:00;7.80;99.90
27707;DHT22;36332;51.384;0.040;2023-02-28T16:49:28;7.80;99.90
27707;DHT22;36332;51.384;0.040;2023-02-28T16:51:56;7.80;99.90
27707;DHT22;36332;51.384;0.040;2023-02-28T16:54:24;7.80;99.90
27707;DHT22;36332;51.384;0.040;2023-02-28T16:56:52;7.80;99.90
27707;DHT22;36332;51.384;0.040;2023-02-28T16:59:23;7.80;99.90
27707;DHT22;36332;51.384;0.040;2023-02-28T17:01:52;7.90;99.90
27707;DHT22;36332;51.384;0.040;2023-02-28T17:04:20;7.80;99.90
27707;DHT22;36332;51.384;0.040;2023-02-28T17:06:47;7.80;99.90
27707;DHT22;36332;51.384;0.040;2023-02-28T17:09:21;7.80;99.90
27707;DHT22;36332;51.384;0.040;2023-02-28T17:11:54;7.80;99.90
27707;DHT22;36332;51.384;0.040;2023-02-28T17:14:24;7.70;99.90
27707;DHT22;36332;51.384;0.040;2023-02-28T17:16:51;7.70;99.90
27707;DHT22;36332;51.384;0.040;2023-02-28T17:19:19;7.70;99.90
27707;DHT22;36332;51.384;0.040;2023-02-28T17:21:47;7.70;99.90
27707;DHT22;36332;51.384;0.040;2023-02-28T17:24:14;7.70;99.90
27707;DHT22;36332;51.384;0.040;2023-02-28T17:26:51;7.70;99.90
27707;DHT22;36332;51.384;0.040;2023-02-28T17:29:21;7.60;99.90
27707;DHT22;36332;51.384;0.040;2023-02-28T17:31:49;7.60;99.90
27707;DHT22;36332;51.384;0.040;2023-02-28T17:34:16;7.60;99.90
27707;DHT22;36332;51.384;0.040;2023-02-28T17:36:46;7.60;99.90
27707;DHT22;36332;51.384;0.040;2023-02-28T17:39:16;7.60;99.90
27707;DHT22;36332;51.384;0.040;2023-02-28T17:41:54;7.50;99.90
27707;DHT22;36332;51.384;0.040;2023-02-28T17:44:23;7.50;99.90
27707;DHT22;36332;51.384;0.040;2023-02-28T17:46:52;7.50;99.90
27707;DHT22;36332;51.384;0.040;2023-02-28T17:49:20;7.50;99.90
27707;DHT22;36332;51.384;0.040;2023-02-28T17:51:48;7.50;99.90
27707;DHT22;36332;51.384;0.040;2023-02-28T17:54:17;7.50;99.90
27707;DHT22;36332;51.384;0.040;2023-02-28T17:56:45;7.50;99.90
27707;DHT22;36332;51.384;0.040;2023-02-28T17:59:13;7.60;99.90
27707;DHT22;36332;51.384;0.040;2023-02-28T18:01:41;7.50;99.90
27707;DHT22;36332;51.384;0.040;2023-02-28T18:04:08;7.50;99.90
27707;DHT22;36332;51.384;0.040;2023-02-28T18:06:37;7.50;99.90
27707;DHT22;36332;51.384;0.040;2023-02-28T18:09:15;7.50;99.90
27707;DHT22;36332;51.384;0.040;2023-02-28T18:11:43;7.50;99.90
27707;DHT22;36332;51.384;0.040;2023-02-28T18:14:16;7.50;99.90
27707;DHT22;36332;51.384;0.040;2023-02-28T18:16:45;7.50;99.90
27707;DHT22;36332;51.384;0.040;2023-02-28T18:19:13;7.50;99.90
27707;DHT22;36332;51.384;0.040;2023-02-28T18:21:46;7.50;99.90
27707;DHT22;36332;51.384;0.040;2023-02-28T18:24:15;7.50;99.90
27707;DHT22;36332;51.384;0.040;2023-02-28T18:26:43;7.40;99.90
27707;DHT22;36332;51.384;0.040;2023-02-28T18:29:23;7.40;99.90
27707;DHT22;36332;51.384;0.040;2023-02-28T18:31:51;7.50;99.90
27707;DHT22;36332;51.384;0.040;2023-02-28T18:34:20;7.50;99.90
27707;DHT22;36332;51.384;0.040;2023-02-28T18:36:49;7.80;99.90
27707;DHT22;36332;51.384;0.040;2023-02-28T18:39:18;7.50;99.90